Warnow Sun — 9HA4159 — position and weather

sailwx.info

Track history (hours):
 
Tides and Currents Weather Stations Pressure Air Temp Water Temp Dewpoint Dewpoint Depression Visibility Wind Speed Wind Dir Waves Ship Positions

Warnow Sun

Last reported at 2017-Oct-19 02:59 UTC. Time now 2017-Oct-20 06:42 UTC.
Position N 48°03' W 006°39'.

Length 180 m; draft 9.3 m.

Type: Ship. MMSI: 249225000.

Date/timePositionNaut miles runAvg speedWind from/ knotsBaromVisibWave heightAir tempDewpointWater temp
2017-Oct-19 02:59N 48°03' W 006°39'2511.6
2017-Oct-19 00:49N 48°25' W 006°20'1111.9
2017-Oct-18 23:53N 48°35' W 006°13'1212.7
2017-Oct-18 22:58N 48°45' W 006°03'1413.6
2017-Oct-18 21:59N 48°56' W 005°53'1414.0
2017-Oct-18 20:58N 49°04' W 005°35'9613.4
2017-Oct-18 13:48N 49°50' W 003°26'414.8
2017-Oct-18 13:30N 49°52' W 003°20'815.3
2017-Oct-18 13:00N 49°56' W 003°09'815.9
2017-Oct-18 12:30N 49°59' W 002°58'816.2
2017-Oct-18 12:00N 50°02' W 002°46'6913.3
2017-Oct-18 06:48N 50°20' W 001°02'310.9
2017-Oct-18 06:30N 50°20' W 000°57'611.7
2017-Oct-18 06:00N 50°22' W 000°48'612.6
2017-Oct-18 05:30N 50°24' W 000°39'713.1
2017-Oct-18 04:59N 50°26' W 000°29'714.0
2017-Oct-18 04:30N 50°27' W 000°18'714.7
2017-Oct-18 04:00N 50°29' W 000°07'815.2
2017-Oct-18 03:30N 50°31' E 000°05'815.6
2017-Oct-18 03:00N 50°33' E 000°16'815.7
2017-Oct-18 02:30N 50°36' E 000°28'815.4
2017-Oct-18 02:01N 50°39' E 000°39'815.0
2017-Oct-18 01:31N 50°43' E 000°49'714.4
2017-Oct-18 01:01N 50°47' E 000°58'813.6
2017-Oct-18 00:25N 50°53' E 001°07'513.0
2017-Oct-18 00:00N 50°56' E 001°13'612.1
2017-Oct-17 23:29N 51°01' E 001°21'611.4
2017-Oct-17 23:00N 51°04' E 001°28'511.0
2017-Oct-17 22:30N 51°08' E 001°34'611.3
2017-Oct-17 22:00N 51°12' E 001°40'611.5
2017-Oct-17 21:30N 51°15' E 001°48'713.1
2017-Oct-17 21:00N 51°20' E 001°54'713.3
2017-Oct-17 20:30N 51°24' E 002°02'713.9
2017-Oct-17 20:00N 51°22' E 002°12'713.9
2017-Oct-17 19:30N 51°22' E 002°24'814.8
2017-Oct-17 18:58N 51°23' E 002°36'612.3
2017-Oct-17 18:30N 51°22' E 002°45'611.6
2017-Oct-17 18:00N 51°23' E 002°54'713.2
2017-Oct-17 17:30N 51°24' E 003°04'714.2
2017-Oct-17 17:00N 51°25' E 003°16'714.4
2017-Oct-17 16:31N 51°25' E 003°27'510.6
2017-Oct-17 16:00N 51°26' E 003°36'510.7
2017-Oct-17 15:31N 51°23' E 003°43'713.7
2017-Oct-17 15:00N 51°21' E 003°54'612.8
2017-Oct-17 14:30N 51°26' E 004°00'611.6
2017-Oct-17 14:00N 51°22' E 004°07'4 8.1
2017-Oct-17 13:31N 51°22' E 004°14'3 5.0
2017-Oct-17 13:00N 51°21' E 004°17'0 0.0
2017-Oct-17 12:30N 51°21' E 004°17'1 1.4
2017-Oct-17 12:01N 51°20' E 004°18'0 0.7
2017-Oct-17 11:30N 51°20' E 004°18'3 5.8
2017-Oct-17 11:00N 51°17' E 004°20'2 3.4
2017-Oct-17 10:30N 51°17' E 004°23'0 0.0
2017-Oct-17 09:57N 51°17' E 004°23'0 0.0
2017-Oct-17 09:30N 51°17' E 004°23'0 0.0
2017-Oct-17 09:00N 51°17' E 004°23'0 0.0
2017-Oct-17 08:30N 51°17' E 004°23'0 0.0
2017-Oct-17 08:00N 51°17' E 004°23'0 0.0
2017-Oct-17 07:30N 51°17' E 004°23'0 0.0
2017-Oct-17 06:57N 51°17' E 004°23'0 0.0
2017-Oct-17 06:24N 51°17' E 004°23'0 0.0
2017-Oct-17 06:00N 51°17' E 004°23'0 0.0
2017-Oct-17 05:30N 51°17' E 004°23'0 0.0
2017-Oct-17 05:00N 51°17' E 004°23'0 0.0
2017-Oct-17 04:30N 51°17' E 004°23'0 0.0
2017-Oct-17 04:00N 51°17' E 004°23'0 0.0
2017-Oct-17 03:30N 51°17' E 004°23'0 0.0
2017-Oct-17 03:00N 51°17' E 004°23'0 0.0
2017-Oct-17 02:30N 51°17' E 004°23'0 0.0
2017-Oct-17 01:57N 51°17' E 004°23'0 0.0
2017-Oct-17 01:30N 51°17' E 004°23'0 0.0
2017-Oct-17 01:00N 51°17' E 004°23'0 0.0
2017-Oct-17 00:30N 51°17' E 004°23'0 0.0
2017-Oct-16 23:51N 51°17' E 004°23'0 0.0
2017-Oct-16 23:30N 51°17' E 004°23'0 0.0
2017-Oct-16 23:00N 51°17' E 004°23'0 0.0
2017-Oct-16 22:30N 51°17' E 004°23'0 0.0
2017-Oct-16 22:00N 51°17' E 004°23'0 0.0
2017-Oct-16 21:30N 51°17' E 004°23'0 0.0
2017-Oct-16 21:00N 51°17' E 004°23'0 0.0
2017-Oct-16 20:30N 51°17' E 004°23'0 0.0
2017-Oct-16 20:00N 51°17' E 004°23'0 0.0
2017-Oct-16 19:30N 51°17' E 004°23'0 0.0
2017-Oct-16 19:00N 51°17' E 004°23'0 0.0
2017-Oct-16 18:30N 51°17' E 004°23'0 0.0
2017-Oct-16 18:00N 51°17' E 004°23'0 0.0
2017-Oct-16 17:30N 51°17' E 004°23'0 0.0
2017-Oct-16 17:00N 51°17' E 004°23'0 0.0
2017-Oct-16 16:27N 51°17' E 004°23'0 0.0
2017-Oct-16 16:00N 51°17' E 004°23'0 0.0
2017-Oct-16 15:27N 51°17' E 004°23'0 0.0
2017-Oct-16 14:57N 51°17' E 004°23'0 0.0
2017-Oct-16 14:00N 51°17' E 004°23'0 0.0
2017-Oct-16 13:30N 51°17' E 004°23'0 0.0
2017-Oct-16 13:00N 51°17' E 004°23'0 0.0
2017-Oct-16 12:30N 51°17' E 004°23'0 0.0
2017-Oct-16 12:00N 51°17' E 004°23'0 0.0
2017-Oct-16 11:27N 51°17' E 004°23'0 0.0
2017-Oct-16 10:54N 51°17' E 004°23'0 0.0
2017-Oct-16 10:27N 51°17' E 004°23'0 0.0
2017-Oct-16 10:00N 51°17' E 004°23'0 0.0
2017-Oct-16 09:30N 51°17' E 004°23'0 0.0
2017-Oct-16 09:00N 51°17' E 004°23'0 0.0
2017-Oct-16 08:31N 51°17' E 004°23'1 2.9
2017-Oct-16 08:00N 51°17' E 004°21'3 6.5
2017-Oct-16 07:30N 51°20' E 004°18'1 2.2
2017-Oct-16 07:01N 51°21' E 004°17'0 0.0
2017-Oct-16 06:30N 51°21' E 004°17'0 0.5
2017-Oct-16 06:01N 51°21' E 004°17'2 4.1
2017-Oct-16 05:30N 51°21' E 004°14'3 6.0
2017-Oct-16 05:00N 51°23' E 004°09'5 9.3
2017-Oct-16 04:30N 51°24' E 004°02'3 5.7
2017-Oct-16 04:01N 51°24' E 003°58'510.4
2017-Oct-16 03:31N 51°21' E 003°52'510.2
2017-Oct-16 03:00N 51°22' E 003°44'5 9.2
2017-Oct-16 02:31N 51°26' E 003°40'4 7.6
2017-Oct-16 02:00N 51°25' E 003°34'3 6.5
2017-Oct-16 01:30N 51°25' E 003°29'3 6.9
2017-Oct-16 01:00N 51°24' E 003°23'4 7.8
2017-Oct-16 00:30N 51°24' E 003°17'4 8.9
2017-Oct-16 00:00N 51°24' E 003°10'4 8.9
2017-Oct-15 23:30N 51°24' E 003°03'510.6
2017-Oct-15 23:00N 51°22' E 002°55'611.8
2017-Oct-15 22:30N 51°22' E 002°46'510.9
2017-Oct-15 22:00N 51°22' E 002°37'2 4.5
2017-Oct-15 21:30N 51°23' E 002°34'2 4.0
2017-Oct-15 21:01N 51°24' E 002°37'1 1.4
2017-Oct-15 20:22N 51°25' E 002°37'0 0.0
2017-Oct-15 19:26N 51°25' E 002°37'0 0.2
2017-Oct-15 18:58N 51°25' E 002°37'0 0.2
2017-Oct-15 18:25N 51°25' E 002°37'0 0.0
2017-Oct-15 17:49N 51°25' E 002°37'0 0.0
2017-Oct-15 17:25N 51°25' E 002°37'0 0.0
2017-Oct-15 16:55N 51°25' E 002°37'0 0.0
2017-Oct-15 16:22N 51°25' E 002°37'0 0.0
2017-Oct-15 15:58N 51°25' E 002°37'0 0.0
2017-Oct-15 15:30N 51°25' E 002°37'0 0.0
2017-Oct-15 15:00N 51°25' E 002°37'2 2.2
2017-Oct-15 14:01N 51°23' E 002°35'2 4.7
2017-Oct-15 13:30N 51°22' E 002°32'3 5.9
2017-Oct-15 12:59N 51°21' E 002°27'3 6.2
2017-Oct-15 12:31N 51°20' E 002°23'4 7.2
2017-Oct-15 12:00N 51°18' E 002°17'5 9.8
2017-Oct-15 11:30N 51°18' E 002°10'3 5.8
2017-Oct-15 11:01N 51°20' E 002°06'5 9.2
2017-Oct-15 10:30N 51°23' E 002°01'4 7.4
2017-Oct-15 10:00N 51°27' E 001°60'4 8.4
2017-Oct-15 09:30N 51°30' E 002°04'4 8.7
2017-Oct-15 09:00N 51°33' E 002°09'4 8.8
2017-Oct-15 08:30N 51°36' E 002°13'4 8.9
2017-Oct-15 08:00N 51°40' E 002°18'5 9.8
2017-Oct-15 07:30N 51°43' E 002°24'611.8
2017-Oct-15 07:00N 51°47' E 002°30'612.1
2017-Oct-15 06:30N 51°52' E 002°36'713.8
2017-Oct-15 06:00N 51°58' E 002°43'715.0
2017-Oct-15 05:30N 52°04' E 002°50'815.0
2017-Oct-15 05:00N 52°10' E 002°57'815.0
2017-Oct-15 04:30N 52°16' E 003°04'714.8
2017-Oct-15 04:00N 52°22' E 003°11'714.7
2017-Oct-15 03:30N 52°28' E 003°18'714.6
2017-Oct-15 03:00N 52°34' E 003°25'813.9
2017-Oct-15 02:27N 52°39' E 003°34'613.9
2017-Oct-15 02:00N 52°44' E 003°40'713.6
2017-Oct-15 01:30N 52°50' E 003°47'713.2
2017-Oct-15 01:00N 52°55' E 003°54'612.9
2017-Oct-15 00:30N 52°59' E 004°02'712.8
2017-Oct-14 23:59N 53°04' E 004°11'612.8
2017-Oct-14 23:30N 53°08' E 004°18'612.6
2017-Oct-14 23:00N 53°12' E 004°26'713.0
2017-Oct-14 22:30N 53°18' E 004°29'713.5
2017-Oct-14 21:57N 53°25' E 004°33'9713.4
2017-Oct-14 14:43N 54°52' E 005°46'312.9
2017-Oct-14 14:30N 54°55' E 005°49'713.0
2017-Oct-14 13:57N 55°01' E 005°55'613.0
2017-Oct-14 13:30N 55°06' E 006°00'713.0
2017-Oct-14 12:59N 55°12' E 006°06'21112.0
2017-Oct-13 19:21N 57°47' E 010°25'411.9
2017-Oct-13 19:00N 57°47' E 010°32'611.6
2017-Oct-13 18:30N 57°48' E 010°43'713.3
2017-Oct-13 18:00N 57°44' E 010°54'714.2
2017-Oct-13 17:30N 57°39' E 011°03'714.2
2017-Oct-13 17:00N 57°34' E 011°13'714.4
2017-Oct-13 16:30N 57°29' E 011°23'714.2
2017-Oct-13 16:00N 57°23' E 011°29'714.4
2017-Oct-13 15:30N 57°17' E 011°34'713.8
2017-Oct-13 15:00N 57°10' E 011°38'1014.0
2017-Oct-13 14:18N 57°01' E 011°44'414.0
2017-Oct-13 14:00N 56°57' E 011°46'1313.8
2017-Oct-13 13:05N 56°44' E 011°53'114.4
2017-Oct-13 13:00N 56°43' E 011°52'2614.3
2017-Oct-13 11:09N 56°21' E 011°27'614.2
2017-Oct-13 10:42N 56°15' E 011°21'314.1
2017-Oct-13 10:30N 56°13' E 011°19'4811.6
2017-Oct-13 06:22N 55°26' E 010°58'410.4
2017-Oct-13 06:00N 55°23' E 011°02'610.1
2017-Oct-13 05:27N 55°17' E 011°03'510.8
2017-Oct-13 05:00N 55°13' E 011°06'611.7
2017-Oct-13 04:30N 55°07' E 011°03'612.3
2017-Oct-13 04:00N 55°01' E 011°02'510.9
2017-Oct-13 03:30N 54°57' E 010°55'510.5
2017-Oct-13 03:00N 54°53' E 010°50'510.6
2017-Oct-13 02:30N 54°47' E 010°50'612.0
2017-Oct-13 02:00N 54°42' E 010°47'611.7
2017-Oct-13 01:30N 54°38' E 010°55'611.8
2017-Oct-13 01:00N 54°36' E 011°04'510.7
2017-Oct-13 00:30N 54°35' E 011°13'611.2
2017-Oct-13 00:00N 54°33' E 011°22'612.6
2017-Oct-12 23:30N 54°30' E 011°32'612.3
2017-Oct-12 23:00N 54°27' E 011°41'1212.1
2017-Oct-12 22:03N 54°26' E 012°01'112.2
2017-Oct-12 22:00N 54°26' E 012°02'611.7
2017-Oct-12 21:30N 54°27' E 012°11'5911.9
2017-Oct-12 16:31N 54°59' E 013°38'111.3
2017-Oct-12 16:27N 54°59' E 013°40'611.3
2017-Oct-12 15:53N 55°02' E 013°50'1011.5
2017-Oct-12 15:02N 55°05' E 014°06'011.7
2017-Oct-12 15:00N 55°06' E 014°07'612.0
2017-Oct-12 14:30N 55°10' E 014°14'611.6
2017-Oct-12 14:00N 55°14' E 014°20'611.6
2017-Oct-12 13:30N 55°19' E 014°26'612.0
2017-Oct-12 13:00N 55°24' E 014°33'611.9
2017-Oct-12 12:30N 55°28' E 014°40'612.3
2017-Oct-12 12:00N 55°31' E 014°50'812.3
2017-Oct-12 11:21N 55°34' E 015°02'512.5
2017-Oct-12 10:58N 55°36' E 015°10'612.2
2017-Oct-12 10:30N 55°38' E 015°20'612.1
2017-Oct-12 10:00N 55°40' E 015°30'611.9
2017-Oct-12 09:30N 55°41' E 015°40'611.8
2017-Oct-12 09:00N 55°43' E 015°50'612.0
2017-Oct-12 08:30N 55°45' E 016°00'611.8
2017-Oct-12 08:00N 55°46' E 016°11'612.0
2017-Oct-12 07:30N 55°48' E 016°21'612.2
2017-Oct-12 07:01N 55°49' E 016°31'612.2
2017-Oct-12 06:30N 55°51' E 016°42'40311.6
2017-Oct-10 19:47N 60°01' E 026°36'414.6
2017-Oct-10 19:29N 60°01' E 026°45'1113.9
2017-Oct-10 18:41N 60°01' E 027°07'313.9
2017-Oct-10 18:30N 60°02' E 027°12'714.1
2017-Oct-10 18:00N 60°06' E 027°23'714.1
2017-Oct-10 17:30N 60°10' E 027°35'713.7
2017-Oct-10 17:00N 60°12' E 027°48'714.5
2017-Oct-10 16:30N 60°10' E 028°02'714.0
2017-Oct-10 16:00N 60°08' E 028°16'612.5
2017-Oct-10 15:30N 60°05' E 028°26'5 9.6
2017-Oct-10 15:00N 60°03' E 028°35'9 9.3
2017-Oct-10 14:00N 60°03' E 028°54'4 8.4
2017-Oct-10 13:30N 60°02' E 029°02'5 9.3
2017-Oct-10 13:00N 60°02' E 029°11'5 9.1
2017-Oct-10 12:29N 60°02' E 029°21'8 8.5
2017-Oct-10 11:32N 60°00' E 029°37'1 9.5
2017-Oct-10 11:28N 60°00' E 029°38'4 9.3
2017-Oct-10 11:00N 59°59' E 029°46'4 8.8
2017-Oct-10 10:30N 59°57' E 029°54'4 8.8
2017-Oct-10 10:00N 59°55' E 030°02'4 8.3
2017-Oct-10 09:31N 59°53' E 030°09'1 2.6
2017-Oct-10 09:00N 59°53' E 030°12'0 0.0
2017-Oct-10 08:29N 59°53' E 030°12'0 0.0
2017-Oct-10 07:59N 59°53' E 030°12'0 0.0
2017-Oct-10 07:29N 59°53' E 030°12'0 0.0
2017-Oct-10 06:59N 59°53' E 030°12'0 0.0
2017-Oct-10 06:29N 59°53' E 030°12'0 0.0
2017-Oct-10 05:59N 59°53' E 030°12'0 0.0
2017-Oct-10 05:29N 59°53' E 030°12'0 0.0
2017-Oct-10 04:59N 59°53' E 030°12'0 0.0
2017-Oct-10 04:29N 59°53' E 030°12'0 0.0
2017-Oct-10 03:59N 59°53' E 030°12'0 0.0
2017-Oct-10 03:29N 59°53' E 030°12'0 0.0
2017-Oct-10 02:59N 59°53' E 030°12'0 0.0
2017-Oct-10 02:29N 59°53' E 030°12'0 0.0
2017-Oct-10 01:59N 59°53' E 030°12'0 0.0
2017-Oct-10 01:29N 59°53' E 030°12'0 0.0
2017-Oct-10 00:59N 59°53' E 030°12'0 0.0
2017-Oct-10 00:29N 59°53' E 030°12'0 0.0
2017-Oct-09 23:59N 59°53' E 030°12'0 0.0
2017-Oct-09 23:29N 59°53' E 030°12'0 0.0
2017-Oct-09 22:59N 59°53' E 030°12'0 0.0
2017-Oct-09 22:29N 59°53' E 030°12'0 0.0
2017-Oct-09 21:59N 59°53' E 030°12'0 0.8
2017-Oct-09 21:31N 59°53' E 030°13'0 0.7
2017-Oct-09 20:59N 59°54' E 030°13'0 0.0
2017-Oct-09 20:29N 59°54' E 030°13'0 0.0
2017-Oct-09 19:59N 59°54' E 030°13'0 0.0
2017-Oct-09 19:29N 59°54' E 030°13'0 0.0
2017-Oct-09 18:59N 59°54' E 030°13'0 0.0
2017-Oct-09 18:29N 59°54' E 030°13'0 0.0
2017-Oct-09 17:59N 59°54' E 030°13'0 0.0
2017-Oct-09 17:29N 59°54' E 030°13'0 0.0
2017-Oct-09 16:59N 59°54' E 030°13'0 0.0
2017-Oct-09 16:29N 59°54' E 030°13'0 0.0
2017-Oct-09 15:59N 59°54' E 030°13'0 0.0
2017-Oct-09 15:29N 59°54' E 030°13'0 0.0
2017-Oct-09 14:59N 59°54' E 030°13'0 0.0
2017-Oct-09 14:29N 59°54' E 030°13'0 0.0
2017-Oct-09 13:59N 59°54' E 030°13'0 0.0
2017-Oct-09 13:29N 59°54' E 030°13'0 0.0
2017-Oct-09 12:56N 59°54' E 030°13'0 0.0
2017-Oct-09 12:26N 59°54' E 030°13'0 0.0
2017-Oct-09 11:50N 59°54' E 030°13'0 0.0
2017-Oct-09 11:29N 59°54' E 030°13'0 0.0
2017-Oct-09 10:56N 59°54' E 030°13'0 0.0
2017-Oct-09 10:29N 59°54' E 030°13'0 0.0
2017-Oct-09 09:59N 59°54' E 030°13'0 0.0
2017-Oct-09 09:29N 59°54' E 030°13'0 0.0
2017-Oct-09 08:59N 59°54' E 030°13'0 0.0
2017-Oct-09 08:26N 59°54' E 030°13'0 0.0
2017-Oct-09 07:59N 59°54' E 030°13'0 0.0
2017-Oct-09 07:29N 59°54' E 030°13'0 0.0
2017-Oct-09 06:59N 59°54' E 030°13'0 0.0
2017-Oct-09 06:26N 59°54' E 030°13'0 0.0
2017-Oct-09 05:59N 59°54' E 030°13'0 0.0
2017-Oct-09 05:29N 59°54' E 030°13'0 0.0
2017-Oct-09 04:59N 59°54' E 030°13'0 0.0
2017-Oct-09 04:29N 59°54' E 030°13'0 0.0
2017-Oct-09 03:56N 59°54' E 030°13'0 0.0
2017-Oct-09 03:29N 59°54' E 030°13'0 0.0
2017-Oct-09 02:59N 59°54' E 030°13'  
Track history (hours):
 
Tides and Currents Weather Stations Pressure Air Temp Water Temp Dewpoint Dewpoint Depression Visibility Wind Speed Wind Dir Waves Ship Positions

Warnow Sun

Last reported at 2017-Oct-19 02:59 UTC. Time now 2017-Oct-20 06:42 UTC.
Position N 48°03' W 006°39'.

Length 180 m; draft 9.3 m.

Type: Ship. MMSI: 249225000.

Date/timePositionNaut miles runAvg speedWind from/ knotsBaromVisibWave heightAir tempDewpointWater temp
2017-Oct-19 02:59N 48°03' W 006°39'2511.6
2017-Oct-19 00:49N 48°25' W 006°20'1111.9
2017-Oct-18 23:53N 48°35' W 006°13'1212.7
2017-Oct-18 22:58N 48°45' W 006°03'1413.6
2017-Oct-18 21:59N 48°56' W 005°53'1414.0
2017-Oct-18 20:58N 49°04' W 005°35'9613.4
2017-Oct-18 13:48N 49°50' W 003°26'414.8
2017-Oct-18 13:30N 49°52' W 003°20'815.3
2017-Oct-18 13:00N 49°56' W 003°09'815.9
2017-Oct-18 12:30N 49°59' W 002°58'816.2
2017-Oct-18 12:00N 50°02' W 002°46'6913.3
2017-Oct-18 06:48N 50°20' W 001°02'310.9
2017-Oct-18 06:30N 50°20' W 000°57'611.7
2017-Oct-18 06:00N 50°22' W 000°48'612.6
2017-Oct-18 05:30N 50°24' W 000°39'713.1
2017-Oct-18 04:59N 50°26' W 000°29'714.0
2017-Oct-18 04:30N 50°27' W 000°18'714.7
2017-Oct-18 04:00N 50°29' W 000°07'815.2
2017-Oct-18 03:30N 50°31' E 000°05'815.6
2017-Oct-18 03:00N 50°33' E 000°16'815.7
2017-Oct-18 02:30N 50°36' E 000°28'815.4
2017-Oct-18 02:01N 50°39' E 000°39'815.0
2017-Oct-18 01:31N 50°43' E 000°49'714.4
2017-Oct-18 01:01N 50°47' E 000°58'813.6
2017-Oct-18 00:25N 50°53' E 001°07'513.0
2017-Oct-18 00:00N 50°56' E 001°13'612.1
2017-Oct-17 23:29N 51°01' E 001°21'611.4
2017-Oct-17 23:00N 51°04' E 001°28'511.0
2017-Oct-17 22:30N 51°08' E 001°34'611.3
2017-Oct-17 22:00N 51°12' E 001°40'611.5
2017-Oct-17 21:30N 51°15' E 001°48'713.1
2017-Oct-17 21:00N 51°20' E 001°54'713.3
2017-Oct-17 20:30N 51°24' E 002°02'713.9
2017-Oct-17 20:00N 51°22' E 002°12'713.9
2017-Oct-17 19:30N 51°22' E 002°24'814.8
2017-Oct-17 18:58N 51°23' E 002°36'612.3
2017-Oct-17 18:30N 51°22' E 002°45'611.6
2017-Oct-17 18:00N 51°23' E 002°54'713.2
2017-Oct-17 17:30N 51°24' E 003°04'714.2
2017-Oct-17 17:00N 51°25' E 003°16'714.4
2017-Oct-17 16:31N 51°25' E 003°27'510.6
2017-Oct-17 16:00N 51°26' E 003°36'510.7
2017-Oct-17 15:31N 51°23' E 003°43'713.7
2017-Oct-17 15:00N 51°21' E 003°54'612.8
2017-Oct-17 14:30N 51°26' E 004°00'611.6
2017-Oct-17 14:00N 51°22' E 004°07'4 8.1
2017-Oct-17 13:31N 51°22' E 004°14'3 5.0
2017-Oct-17 13:00N 51°21' E 004°17'0 0.0
2017-Oct-17 12:30N 51°21' E 004°17'1 1.4
2017-Oct-17 12:01N 51°20' E 004°18'0 0.7
2017-Oct-17 11:30N 51°20' E 004°18'3 5.8
2017-Oct-17 11:00N 51°17' E 004°20'2 3.4
2017-Oct-17 10:30N 51°17' E 004°23'0 0.0
2017-Oct-17 09:57N 51°17' E 004°23'0 0.0
2017-Oct-17 09:30N 51°17' E 004°23'0 0.0
2017-Oct-17 09:00N 51°17' E 004°23'0 0.0
2017-Oct-17 08:30N 51°17' E 004°23'0 0.0
2017-Oct-17 08:00N 51°17' E 004°23'0 0.0
2017-Oct-17 07:30N 51°17' E 004°23'0 0.0
2017-Oct-17 06:57N 51°17' E 004°23'0 0.0
2017-Oct-17 06:24N 51°17' E 004°23'0 0.0
2017-Oct-17 06:00N 51°17' E 004°23'0 0.0
2017-Oct-17 05:30N 51°17' E 004°23'0 0.0
2017-Oct-17 05:00N 51°17' E 004°23'0 0.0
2017-Oct-17 04:30N 51°17' E 004°23'0 0.0
2017-Oct-17 04:00N 51°17' E 004°23'0 0.0
2017-Oct-17 03:30N 51°17' E 004°23'0 0.0
2017-Oct-17 03:00N 51°17' E 004°23'0 0.0
2017-Oct-17 02:30N 51°17' E 004°23'0 0.0
2017-Oct-17 01:57N 51°17' E 004°23'0 0.0
2017-Oct-17 01:30N 51°17' E 004°23'0 0.0
2017-Oct-17 01:00N 51°17' E 004°23'0 0.0
2017-Oct-17 00:30N 51°17' E 004°23'0 0.0
2017-Oct-16 23:51N 51°17' E 004°23'0 0.0
2017-Oct-16 23:30N 51°17' E 004°23'0 0.0
2017-Oct-16 23:00N 51°17' E 004°23'0 0.0
2017-Oct-16 22:30N 51°17' E 004°23'0 0.0
2017-Oct-16 22:00N 51°17' E 004°23'0 0.0
2017-Oct-16 21:30N 51°17' E 004°23'0 0.0
2017-Oct-16 21:00N 51°17' E 004°23'0 0.0
2017-Oct-16 20:30N 51°17' E 004°23'0 0.0
2017-Oct-16 20:00N 51°17' E 004°23'0 0.0
2017-Oct-16 19:30N 51°17' E 004°23'0 0.0
2017-Oct-16 19:00N 51°17' E 004°23'0 0.0
2017-Oct-16 18:30N 51°17' E 004°23'0 0.0
2017-Oct-16 18:00N 51°17' E 004°23'0 0.0
2017-Oct-16 17:30N 51°17' E 004°23'0 0.0
2017-Oct-16 17:00N 51°17' E 004°23'0 0.0
2017-Oct-16 16:27N 51°17' E 004°23'0 0.0
2017-Oct-16 16:00N 51°17' E 004°23'0 0.0
2017-Oct-16 15:27N 51°17' E 004°23'0 0.0
2017-Oct-16 14:57N 51°17' E 004°23'0 0.0
2017-Oct-16 14:00N 51°17' E 004°23'0 0.0
2017-Oct-16 13:30N 51°17' E 004°23'0 0.0
2017-Oct-16 13:00N 51°17' E 004°23'0 0.0
2017-Oct-16 12:30N 51°17' E 004°23'0 0.0
2017-Oct-16 12:00N 51°17' E 004°23'0 0.0
2017-Oct-16 11:27N 51°17' E 004°23'0 0.0
2017-Oct-16 10:54N 51°17' E 004°23'0 0.0
2017-Oct-16 10:27N 51°17' E 004°23'0 0.0
2017-Oct-16 10:00N 51°17' E 004°23'0 0.0
2017-Oct-16 09:30N 51°17' E 004°23'0 0.0
2017-Oct-16 09:00N 51°17' E 004°23'0 0.0
2017-Oct-16 08:31N 51°17' E 004°23'1 2.9
2017-Oct-16 08:00N 51°17' E 004°21'3 6.5
2017-Oct-16 07:30N 51°20' E 004°18'1 2.2
2017-Oct-16 07:01N 51°21' E 004°17'0 0.0
2017-Oct-16 06:30N 51°21' E 004°17'0 0.5
2017-Oct-16 06:01N 51°21' E 004°17'2 4.1
2017-Oct-16 05:30N 51°21' E 004°14'3 6.0
2017-Oct-16 05:00N 51°23' E 004°09'5 9.3
2017-Oct-16 04:30N 51°24' E 004°02'3 5.7
2017-Oct-16 04:01N 51°24' E 003°58'510.4
2017-Oct-16 03:31N 51°21' E 003°52'510.2
2017-Oct-16 03:00N 51°22' E 003°44'5 9.2
2017-Oct-16 02:31N 51°26' E 003°40'4 7.6
2017-Oct-16 02:00N 51°25' E 003°34'3 6.5
2017-Oct-16 01:30N 51°25' E 003°29'3 6.9
2017-Oct-16 01:00N 51°24' E 003°23'4 7.8
2017-Oct-16 00:30N 51°24' E 003°17'4 8.9
2017-Oct-16 00:00N 51°24' E 003°10'4 8.9
2017-Oct-15 23:30N 51°24' E 003°03'510.6
2017-Oct-15 23:00N 51°22' E 002°55'611.8
2017-Oct-15 22:30N 51°22' E 002°46'510.9
2017-Oct-15 22:00N 51°22' E 002°37'2 4.5
2017-Oct-15 21:30N 51°23' E 002°34'2 4.0
2017-Oct-15 21:01N 51°24' E 002°37'1 1.4
2017-Oct-15 20:22N 51°25' E 002°37'0 0.0
2017-Oct-15 19:26N 51°25' E 002°37'0 0.2
2017-Oct-15 18:58N 51°25' E 002°37'0 0.2
2017-Oct-15 18:25N 51°25' E 002°37'0 0.0
2017-Oct-15 17:49N 51°25' E 002°37'0 0.0
2017-Oct-15 17:25N 51°25' E 002°37'0 0.0
2017-Oct-15 16:55N 51°25' E 002°37'0 0.0
2017-Oct-15 16:22N 51°25' E 002°37'0 0.0
2017-Oct-15 15:58N 51°25' E 002°37'0 0.0
2017-Oct-15 15:30N 51°25' E 002°37'0 0.0
2017-Oct-15 15:00N 51°25' E 002°37'2 2.2
2017-Oct-15 14:01N 51°23' E 002°35'2 4.7
2017-Oct-15 13:30N 51°22' E 002°32'3 5.9
2017-Oct-15 12:59N 51°21' E 002°27'3 6.2
2017-Oct-15 12:31N 51°20' E 002°23'4 7.2
2017-Oct-15 12:00N 51°18' E 002°17'5 9.8
2017-Oct-15 11:30N 51°18' E 002°10'3 5.8
2017-Oct-15 11:01N 51°20' E 002°06'5 9.2
2017-Oct-15 10:30N 51°23' E 002°01'4 7.4
2017-Oct-15 10:00N 51°27' E 001°60'4 8.4
2017-Oct-15 09:30N 51°30' E 002°04'4 8.7
2017-Oct-15 09:00N 51°33' E 002°09'4 8.8
2017-Oct-15 08:30N 51°36' E 002°13'4 8.9
2017-Oct-15 08:00N 51°40' E 002°18'5 9.8
2017-Oct-15 07:30N 51°43' E 002°24'611.8
2017-Oct-15 07:00N 51°47' E 002°30'612.1
2017-Oct-15 06:30N 51°52' E 002°36'713.8
2017-Oct-15 06:00N 51°58' E 002°43'715.0
2017-Oct-15 05:30N 52°04' E 002°50'815.0
2017-Oct-15 05:00N 52°10' E 002°57'815.0
2017-Oct-15 04:30N 52°16' E 003°04'714.8
2017-Oct-15 04:00N 52°22' E 003°11'714.7
2017-Oct-15 03:30N 52°28' E 003°18'714.6
2017-Oct-15 03:00N 52°34' E 003°25'813.9
2017-Oct-15 02:27N 52°39' E 003°34'613.9
2017-Oct-15 02:00N 52°44' E 003°40'713.6
2017-Oct-15 01:30N 52°50' E 003°47'713.2
2017-Oct-15 01:00N 52°55' E 003°54'612.9
2017-Oct-15 00:30N 52°59' E 004°02'712.8
2017-Oct-14 23:59N 53°04' E 004°11'612.8
2017-Oct-14 23:30N 53°08' E 004°18'612.6
2017-Oct-14 23:00N 53°12' E 004°26'713.0
2017-Oct-14 22:30N 53°18' E 004°29'713.5
2017-Oct-14 21:57N 53°25' E 004°33'9713.4
2017-Oct-14 14:43N 54°52' E 005°46'312.9
2017-Oct-14 14:30N 54°55' E 005°49'713.0
2017-Oct-14 13:57N 55°01' E 005°55'613.0
2017-Oct-14 13:30N 55°06' E 006°00'713.0
2017-Oct-14 12:59N 55°12' E 006°06'21112.0
2017-Oct-13 19:21N 57°47' E 010°25'411.9
2017-Oct-13 19:00N 57°47' E 010°32'611.6
2017-Oct-13 18:30N 57°48' E 010°43'713.3
2017-Oct-13 18:00N 57°44' E 010°54'714.2
2017-Oct-13 17:30N 57°39' E 011°03'714.2
2017-Oct-13 17:00N 57°34' E 011°13'714.4
2017-Oct-13 16:30N 57°29' E 011°23'714.2
2017-Oct-13 16:00N 57°23' E 011°29'714.4
2017-Oct-13 15:30N 57°17' E 011°34'713.8
2017-Oct-13 15:00N 57°10' E 011°38'1014.0
2017-Oct-13 14:18N 57°01' E 011°44'414.0
2017-Oct-13 14:00N 56°57' E 011°46'1313.8
2017-Oct-13 13:05N 56°44' E 011°53'114.4
2017-Oct-13 13:00N 56°43' E 011°52'2614.3
2017-Oct-13 11:09N 56°21' E 011°27'614.2
2017-Oct-13 10:42N 56°15' E 011°21'314.1
2017-Oct-13 10:30N 56°13' E 011°19'4811.6
2017-Oct-13 06:22N 55°26' E 010°58'410.4
2017-Oct-13 06:00N 55°23' E 011°02'610.1
2017-Oct-13 05:27N 55°17' E 011°03'510.8
2017-Oct-13 05:00N 55°13' E 011°06'611.7
2017-Oct-13 04:30N 55°07' E 011°03'612.3
2017-Oct-13 04:00N 55°01' E 011°02'510.9
2017-Oct-13 03:30N 54°57' E 010°55'510.5
2017-Oct-13 03:00N 54°53' E 010°50'510.6
2017-Oct-13 02:30N 54°47' E 010°50'612.0
2017-Oct-13 02:00N 54°42' E 010°47'611.7
2017-Oct-13 01:30N 54°38' E 010°55'611.8
2017-Oct-13 01:00N 54°36' E 011°04'510.7
2017-Oct-13 00:30N 54°35' E 011°13'611.2
2017-Oct-13 00:00N 54°33' E 011°22'612.6
2017-Oct-12 23:30N 54°30' E 011°32'612.3
2017-Oct-12 23:00N 54°27' E 011°41'1212.1
2017-Oct-12 22:03N 54°26' E 012°01'112.2
2017-Oct-12 22:00N 54°26' E 012°02'611.7
2017-Oct-12 21:30N 54°27' E 012°11'5911.9
2017-Oct-12 16:31N 54°59' E 013°38'111.3
2017-Oct-12 16:27N 54°59' E 013°40'611.3
2017-Oct-12 15:53N 55°02' E 013°50'1011.5
2017-Oct-12 15:02N 55°05' E 014°06'011.7
2017-Oct-12 15:00N 55°06' E 014°07'612.0
2017-Oct-12 14:30N 55°10' E 014°14'611.6
2017-Oct-12 14:00N 55°14' E 014°20'611.6
2017-Oct-12 13:30N 55°19' E 014°26'612.0
2017-Oct-12 13:00N 55°24' E 014°33'611.9
2017-Oct-12 12:30N 55°28' E 014°40'612.3
2017-Oct-12 12:00N 55°31' E 014°50'812.3
2017-Oct-12 11:21N 55°34' E 015°02'512.5
2017-Oct-12 10:58N 55°36' E 015°10'612.2
2017-Oct-12 10:30N 55°38' E 015°20'612.1
2017-Oct-12 10:00N 55°40' E 015°30'611.9
2017-Oct-12 09:30N 55°41' E 015°40'611.8
2017-Oct-12 09:00N 55°43' E 015°50'612.0
2017-Oct-12 08:30N 55°45' E 016°00'611.8
2017-Oct-12 08:00N 55°46' E 016°11'612.0
2017-Oct-12 07:30N 55°48' E 016°21'612.2
2017-Oct-12 07:01N 55°49' E 016°31'612.2
2017-Oct-12 06:30N 55°51' E 016°42'40311.6
2017-Oct-10 19:47N 60°01' E 026°36'414.6
2017-Oct-10 19:29N 60°01' E 026°45'1113.9
2017-Oct-10 18:41N 60°01' E 027°07'313.9
2017-Oct-10 18:30N 60°02' E 027°12'714.1
2017-Oct-10 18:00N 60°06' E 027°23'714.1
2017-Oct-10 17:30N 60°10' E 027°35'713.7
2017-Oct-10 17:00N 60°12' E 027°48'714.5
2017-Oct-10 16:30N 60°10' E 028°02'714.0
2017-Oct-10 16:00N 60°08' E 028°16'612.5
2017-Oct-10 15:30N 60°05' E 028°26'5 9.6
2017-Oct-10 15:00N 60°03' E 028°35'9 9.3
2017-Oct-10 14:00N 60°03' E 028°54'4 8.4
2017-Oct-10 13:30N 60°02' E 029°02'5 9.3
2017-Oct-10 13:00N 60°02' E 029°11'5 9.1
2017-Oct-10 12:29N 60°02' E 029°21'8 8.5
2017-Oct-10 11:32N 60°00' E 029°37'1 9.5
2017-Oct-10 11:28N 60°00' E 029°38'4 9.3
2017-Oct-10 11:00N 59°59' E 029°46'4 8.8
2017-Oct-10 10:30N 59°57' E 029°54'4 8.8
2017-Oct-10 10:00N 59°55' E 030°02'4 8.3
2017-Oct-10 09:31N 59°53' E 030°09'1 2.6
2017-Oct-10 09:00N 59°53' E 030°12'0 0.0
2017-Oct-10 08:29N 59°53' E 030°12'0 0.0
2017-Oct-10 07:59N 59°53' E 030°12'0 0.0
2017-Oct-10 07:29N 59°53' E 030°12'0 0.0
2017-Oct-10 06:59N 59°53' E 030°12'0 0.0
2017-Oct-10 06:29N 59°53' E 030°12'0 0.0
2017-Oct-10 05:59N 59°53' E 030°12'0 0.0
2017-Oct-10 05:29N 59°53' E 030°12'0 0.0
2017-Oct-10 04:59N 59°53' E 030°12'0 0.0
2017-Oct-10 04:29N 59°53' E 030°12'0 0.0
2017-Oct-10 03:59N 59°53' E 030°12'0 0.0
2017-Oct-10 03:29N 59°53' E 030°12'0 0.0
2017-Oct-10 02:59N 59°53' E 030°12'0 0.0
2017-Oct-10 02:29N 59°53' E 030°12'0 0.0
2017-Oct-10 01:59N 59°53' E 030°12'0 0.0
2017-Oct-10 01:29N 59°53' E 030°12'0 0.0
2017-Oct-10 00:59N 59°53' E 030°12'0 0.0
2017-Oct-10 00:29N 59°53' E 030°12'0 0.0
2017-Oct-09 23:59N 59°53' E 030°12'0 0.0
2017-Oct-09 23:29N 59°53' E 030°12'0 0.0
2017-Oct-09 22:59N 59°53' E 030°12'0 0.0
2017-Oct-09 22:29N 59°53' E 030°12'0 0.0
2017-Oct-09 21:59N 59°53' E 030°12'0 0.8
2017-Oct-09 21:31N 59°53' E 030°13'0 0.7
2017-Oct-09 20:59N 59°54' E 030°13'0 0.0
2017-Oct-09 20:29N 59°54' E 030°13'0 0.0
2017-Oct-09 19:59N 59°54' E 030°13'0 0.0
2017-Oct-09 19:29N 59°54' E 030°13'0 0.0
2017-Oct-09 18:59N 59°54' E 030°13'0 0.0
2017-Oct-09 18:29N 59°54' E 030°13'0 0.0
2017-Oct-09 17:59N 59°54' E 030°13'0 0.0
2017-Oct-09 17:29N 59°54' E 030°13'0 0.0
2017-Oct-09 16:59N 59°54' E 030°13'0 0.0
2017-Oct-09 16:29N 59°54' E 030°13'0 0.0
2017-Oct-09 15:59N 59°54' E 030°13'0 0.0
2017-Oct-09 15:29N 59°54' E 030°13'0 0.0
2017-Oct-09 14:59N 59°54' E 030°13'0 0.0
2017-Oct-09 14:29N 59°54' E 030°13'0 0.0
2017-Oct-09 13:59N 59°54' E 030°13'0 0.0
2017-Oct-09 13:29N 59°54' E 030°13'0 0.0
2017-Oct-09 12:56N 59°54' E 030°13'0 0.0
2017-Oct-09 12:26N 59°54' E 030°13'0 0.0
2017-Oct-09 11:50N 59°54' E 030°13'0 0.0
2017-Oct-09 11:29N 59°54' E 030°13'0 0.0
2017-Oct-09 10:56N 59°54' E 030°13'0 0.0
2017-Oct-09 10:29N 59°54' E 030°13'0 0.0
2017-Oct-09 09:59N 59°54' E 030°13'0 0.0
2017-Oct-09 09:29N 59°54' E 030°13'0 0.0
2017-Oct-09 08:59N 59°54' E 030°13'0 0.0
2017-Oct-09 08:26N 59°54' E 030°13'0 0.0
2017-Oct-09 07:59N 59°54' E 030°13'0 0.0
2017-Oct-09 07:29N 59°54' E 030°13'0 0.0
2017-Oct-09 06:59N 59°54' E 030°13'0 0.0
2017-Oct-09 06:26N 59°54' E 030°13'0 0.0
2017-Oct-09 05:59N 59°54' E 030°13'0 0.0
2017-Oct-09 05:29N 59°54' E 030°13'0 0.0
2017-Oct-09 04:59N 59°54' E 030°13'0 0.0
2017-Oct-09 04:29N 59°54' E 030°13'0 0.0
2017-Oct-09 03:56N 59°54' E 030°13'0 0.0
2017-Oct-09 03:29N 59°54' E 030°13'0 0.0
2017-Oct-09 02:59N 59°54' E 030°13'  

Dump ship's entire track history